Time;durP1;ratioP1;P1;durP2;ratioP2;P2;SDS_P1;SDS_P2;PMS_P1;PMS_P2;Temp;Humidity;BMP_temperature;BMP_pressure;BME280_temperature;BME280_humidity;BME280_pressure;Samples;Min_cycle;Max_cycle;Signal;HPM_P1;HPM_P2
2021/12/09 00:02:20;;;;;;;7.63;4.55;;;6.40;78.70;;;;;;5032843;28;20029;-20
2021/12/09 00:04:48;;;;;;;11.80;5.50;;;6.40;78.60;;;;;;5033322;28;20026;-23
2021/12/09 00:07:15;;;;;;;7.93;4.53;;;6.40;78.70;;;;;;5033793;28;20025;-22
2021/12/09 00:09:41;;;;;;;6.50;3.97;;;6.40;78.60;;;;;;5033024;28;20029;-22
2021/12/09 00:12:08;;;;;;;6.72;4.10;;;6.40;78.40;;;;;;5032999;28;20512;-21
2021/12/09 00:14:35;;;;;;;4.88;3.20;;;6.40;78.60;;;;;;5032688;28;20497;-20
2021/12/09 00:17:09;;;;;;;3.17;2.28;;;6.40;78.60;;;;;;5032837;28;20025;-20
2021/12/09 00:19:37;;;;;;;4.03;2.75;;;6.40;78.30;;;;;;5032909;28;20036;-20
2021/12/09 00:22:05;;;;;;;5.15;3.20;;;6.40;78.60;;;;;;5032896;28;20021;-20
2021/12/09 00:24:31;;;;;;;6.45;3.78;;;6.40;78.80;;;;;;5033226;28;20038;-20
2021/12/09 00:26:58;;;;;;;2.67;2.05;;;6.40;78.70;;;;;;5032863;28;20048;-19
2021/12/09 00:29:24;;;;;;;4.22;3.05;;;6.40;78.50;;;;;;5032779;28;20026;-21
2021/12/09 00:31:51;;;;;;;3.45;2.58;;;6.50;78.40;;;;;;5033113;28;20034;-20
2021/12/09 00:34:27;;;;;;;2.53;2.00;;;6.60;78.30;;;;;;5032302;28;20115;-22
2021/12/09 00:37:04;;;;;;;4.97;3.50;;;6.60;78.10;;;;;;5033016;28;20052;-20
2021/12/09 00:39:30;;;;;;;3.47;2.20;;;6.60;78.30;;;;;;5032761;28;20036;-20
2021/12/09 00:41:56;;;;;;;2.95;2.15;;;6.60;78.20;;;;;;5036866;28;20052;-21
2021/12/09 00:44:23;;;;;;;4.18;2.60;;;6.60;78.10;;;;;;5036254;28;20489;-20
2021/12/09 00:46:49;;;;;;;7.38;3.97;;;6.70;77.80;;;;;;5037080;28;20075;-20
2021/12/09 00:49:15;;;;;;;6.75;4.60;;;6.60;77.80;;;;;;5036477;28;20026;-20
2021/12/09 00:51:40;;;;;;;5.97;3.80;;;6.60;78.30;;;;;;5036734;28;20032;-23
2021/12/09 00:54:06;;;;;;;8.55;5.78;;;6.60;78.10;;;;;;5036688;28;20370;-20
2021/12/09 00:56:33;;;;;;;9.15;5.53;;;6.60;78.40;;;;;;5034853;28;20036;-21
2021/12/09 00:58:59;;;;;;;5.43;3.90;;;6.60;78.60;;;;;;5036174;28;20489;-20
2021/12/09 01:01:25;;;;;;;3.83;2.50;;;6.60;78.30;;;;;;5036250;28;20025;-20
2021/12/09 01:03:52;;;;;;;5.25;3.72;;;6.60;77.90;;;;;;5036518;28;20044;-20
2021/12/09 01:06:18;;;;;;;4.63;3.35;;;6.70;78.00;;;;;;5035936;28;20037;-21
2021/12/09 01:08:44;;;;;;;3.15;2.60;;;6.70;77.90;;;;;;5036409;28;20029;-20
2021/12/09 01:11:12;;;;;;;4.88;3.33;;;6.70;77.70;;;;;;5036527;28;20604;-21
2021/12/09 01:13:40;;;;;;;6.35;4.28;;;6.70;77.60;;;;;;5036252;28;20112;-22
2021/12/09 01:16:07;;;;;;;3.65;2.90;;;6.70;77.90;;;;;;5035823;28;20034;-21
2021/12/09 01:18:35;;;;;;;5.05;2.72;;;6.70;77.80;;;;;;5035961;28;20180;-21
2021/12/09 01:21:02;;;;;;;4.90;2.78;;;6.70;77.60;;;;;;5036502;28;20034;-20
2021/12/09 01:23:28;;;;;;;3.38;2.47;;;6.70;77.60;;;;;;5034962;28;20112;-20
2021/12/09 01:25:59;;;;;;;3.00;2.35;;;6.70;77.50;;;;;;5035745;28;20433;-20
2021/12/09 01:28:28;;;;;;;3.47;2.80;;;6.70;77.50;;;;;;5035489;28;20057;-20
2021/12/09 01:31:01;;;;;;;4.00;2.92;;;6.70;77.70;;;;;;5035956;28;20033;-20
2021/12/09 01:33:29;;;;;;;7.53;4.43;;;6.70;77.50;;;;;;5035730;28;20057;-22
2021/12/09 01:35:56;;;;;;;6.70;3.80;;;6.70;77.80;;;;;;5035886;28;20079;-20
2021/12/09 01:38:23;;;;;;;3.08;2.50;;;6.70;77.80;;;;;;5035659;28;20041;-22
2021/12/09 01:40:49;;;;;;;3.83;2.42;;;6.70;77.60;;;;;;5035485;28;20033;-20
2021/12/09 01:43:15;;;;;;;6.88;4.45;;;6.70;77.50;;;;;;5035570;28;20021;-19
2021/12/09 01:45:42;;;;;;;8.25;5.55;;;6.70;77.50;;;;;;5035723;28;20100;-19
2021/12/09 01:48:08;;;;;;;8.20;5.20;;;6.70;78.30;;;;;;5035845;28;20025;-21
2021/12/09 01:50:35;;;;;;;5.13;3.58;;;6.60;78.30;;;;;;5034849;28;20026;-21
2021/12/09 01:53:03;;;;;;;4.15;3.25;;;6.60;78.10;;;;;;5035591;28;20053;-22
2021/12/09 01:55:30;;;;;;;5.45;3.55;;;6.60;77.80;;;;;;5035476;28;20037;-20
2021/12/09 01:57:57;;;;;;;5.97;3.85;;;6.60;77.80;;;;;;5035480;28;20107;-19
2021/12/09 02:00:26;;;;;;;4.75;3.38;;;6.70;77.70;;;;;;5034833;28;20465;-20
2021/12/09 02:02:53;;;;;;;6.30;4.20;;;6.70;77.60;;;;;;5035551;28;20056;-20
2021/12/09 02:05:20;;;;;;;7.40;4.68;;;6.70;77.70;;;;;;5035577;28;20033;-20
2021/12/09 02:07:46;;;;;;;5.15;3.80;;;6.60;78.00;;;;;;5033799;28;20049;-20
2021/12/09 02:10:17;;;;;;;6.75;4.43;;;6.60;78.10;;;;;;5035045;28;20044;-20
2021/12/09 02:12:45;;;;;;;5.82;3.22;;;6.60;78.10;;;;;;5035144;28;20026;-20
2021/12/09 02:15:11;;;;;;;5.95;4.15;;;6.60;78.10;;;;;;5034890;28;20026;-20
2021/12/09 02:17:38;;;;;;;6.45;4.15;;;6.60;78.20;;;;;;5034817;28;20501;-20
2021/12/09 02:20:07;;;;;;;4.63;3.13;;;6.50;78.30;;;;;;5034772;28;20024;-20
2021/12/09 02:22:34;;;;;;;8.80;4.85;;;6.50;78.20;;;;;;5034857;28;20029;-20
2021/12/09 02:25:00;;;;;;;5.82;3.90;;;6.50;78.50;;;;;;5034652;28;20030;-20
2021/12/09 02:27:27;;;;;;;7.20;4.00;;;6.50;78.40;;;;;;5034549;28;20029;-20
2021/12/09 02:29:54;;;;;;;6.95;4.40;;;6.50;78.30;;;;;;5035094;28;20493;-20
2021/12/09 02:32:20;;;;;;;6.07;3.88;;;6.50;78.40;;;;;;5034322;28;20559;-20
2021/12/09 02:34:46;;;;;;;6.35;3.85;;;6.50;78.40;;;;;;5034547;28;20089;-21
2021/12/09 02:37:14;;;;;;;4.93;3.47;;;6.60;78.30;;;;;;5034958;28;20044;-21
2021/12/09 02:39:44;;;;;;;4.93;3.28;;;6.50;78.20;;;;;;5034713;28;20127;-20
2021/12/09 02:42:11;;;;;;;5.38;3.45;;;6.50;78.10;;;;;;5034660;28;20098;-19
2021/12/09 02:44:38;;;;;;;4.13;2.72;;;6.50;78.10;;;;;;5034011;28;20100;-20
2021/12/09 02:47:05;;;;;;;5.43;2.33;;;6.60;78.10;;;;;;5034284;28;20079;-22
2021/12/09 02:49:34;;;;;;;4.05;2.40;;;6.50;78.10;;;;;;5034216;28;20496;-20
2021/12/09 02:52:04;;;;;;;3.17;2.65;;;6.50;78.00;;;;;;5034155;28;20053;-20
2021/12/09 02:54:31;;;;;;;4.53;2.85;;;6.60;78.00;;;;;;5034221;28;20025;-20
2021/12/09 02:57:05;;;;;;;3.20;2.20;;;6.60;78.00;;;;;;5033974;28;20037;-19
2021/12/09 02:59:32;;;;;;;6.55;4.07;;;6.60;77.90;;;;;;5034047;28;20025;-22
2021/12/09 03:02:01;;;;;;;7.68;3.97;;;6.60;77.90;;;;;;5033962;28;20077;-19
2021/12/09 03:04:39;;;;;;;5.22;3.00;;;6.70;77.90;;;;;;5033281;28;20033;-20
2021/12/09 03:07:18;;;;;;;8.30;4.22;;;6.60;77.80;;;;;;5033939;28;20029;-21
2021/12/09 03:09:50;;;;;;;3.17;2.42;;;6.70;77.80;;;;;;5034190;28;20545;-22
2021/12/09 03:12:23;;;;;;;6.30;3.67;;;6.70;77.70;;;;;;5033942;28;20116;-22
2021/12/09 03:14:50;;;;;;;5.53;2.88;;;6.70;77.60;;;;;;5034061;28;20029;-20
2021/12/09 03:17:16;;;;;;;3.50;2.50;;;6.80;77.70;;;;;;5033953;28;20065;-20
2021/12/09 03:19:42;;;;;;;6.20;3.70;;;6.80;77.60;;;;;;5033912;28;20104;-20
2021/12/09 03:22:09;;;;;;;4.07;2.53;;;6.80;77.60;;;;;;5033620;28;20033;-20
2021/12/09 03:24:35;;;;;;;4.15;3.03;;;6.80;77.50;;;;;;5033437;28;20060;-21
2021/12/09 03:27:01;;;;;;;4.90;3.17;;;6.90;77.40;;;;;;5033787;28;20014;-20
2021/12/09 03:29:29;;;;;;;5.63;3.55;;;6.90;77.50;;;;;;5033848;28;20033;-19
2021/12/09 03:31:58;;;;;;;3.60;2.65;;;6.80;77.50;;;;;;5033411;28;20025;-19
2021/12/09 03:34:28;;;;;;;6.38;4.32;;;6.90;77.60;;;;;;5033164;28;20433;-20
2021/12/09 03:36:56;;;;;;;5.80;4.25;;;6.90;77.40;;;;;;5033603;28;20449;-20
2021/12/09 03:39:27;;;;;;;6.00;4.05;;;6.90;77.60;;;;;;5033338;28;20034;-19
2021/12/09 03:41:54;;;;;;;7.35;4.32;;;6.80;77.60;;;;;;5033624;28;20033;-19
2021/12/09 03:44:22;;;;;;;4.57;3.03;;;6.90;77.60;;;;;;5033004;28;20061;-19
2021/12/09 03:46:50;;;;;;;6.85;4.82;;;6.90;77.60;;;;;;5033277;28;20477;-19
2021/12/09 03:49:16;;;;;;;8.00;4.93;;;6.90;77.80;;;;;;5033270;28;20474;-20
2021/12/09 03:51:43;;;;;;;10.32;7.03;;;6.80;77.70;;;;;;5033198;28;20040;-20
2021/12/09 03:54:11;;;;;;;8.35;5.88;;;6.80;77.70;;;;;;5033185;28;20033;-20
2021/12/09 03:56:38;;;;;;;4.05;3.15;;;6.80;77.90;;;;;;5032886;28;20029;-19
2021/12/09 03:59:06;;;;;;;5.03;3.65;;;6.80;77.70;;;;;;5033023;28;20116;-19
2021/12/09 04:01:33;;;;;;;9.32;6.45;;;6.70;77.50;;;;;;5033312;28;20037;-20
2021/12/09 04:04:00;;;;;;;9.20;6.10;;;6.70;77.80;;;;;;5033421;28;20026;-20
2021/12/09 04:06:29;;;;;;;8.13;5.47;;;6.70;78.00;;;;;;5033082;28;20080;-20
2021/12/09 04:08:56;;;;;;;10.07;5.75;;;6.70;78.00;;;;;;5033301;28;20105;-20
2021/12/09 04:11:23;;;;;;;10.05;6.93;;;6.80;78.00;;;;;;5033799;28;20022;-22
2021/12/09 04:13:49;;;;;;;12.70;7.95;;;6.70;78.00;;;;;;5033345;28;20402;-21
2021/12/09 04:16:16;;;;;;;7.68;4.72;;;6.70;78.10;;;;;;5036905;28;20037;-20
2021/12/09 04:18:44;;;;;;;6.40;3.95;;;6.70;77.90;;;;;;5036951;28;20035;-21
2021/12/09 04:21:12;;;;;;;10.32;5.95;;;6.70;77.70;;;;;;5037713;28;20022;-20
2021/12/09 04:23:39;;;;;;;16.35;10.43;;;6.70;77.80;;;;;;5037557;28;20069;-19
2021/12/09 04:26:06;;;;;;;14.07;8.38;;;6.60;78.20;;;;;;5036902;28;20473;-22
2021/12/09 04:28:34;;;;;;;9.05;5.70;;;6.60;78.00;;;;;;5036662;28;20045;-21
2021/12/09 04:31:01;;;;;;;11.02;6.55;;;6.60;78.20;;;;;;5036854;28;20026;-20
2021/12/09 04:33:27;;;;;;;11.95;7.82;;;6.60;78.40;;;;;;5036533;28;20499;-21
2021/12/09 04:35:53;;;;;;;9.48;5.78;;;6.60;78.50;;;;;;5036703;28;20515;-19
2021/12/09 04:38:19;;;;;;;10.93;6.35;;;6.60;78.10;;;;;;5035257;28;20053;-21
2021/12/09 04:40:46;;;;;;;11.77;6.97;;;6.50;78.10;;;;;;5037105;28;20108;-21
2021/12/09 04:43:11;;;;;;;14.88;8.90;;;6.60;78.20;;;;;;5036611;28;20116;-20
2021/12/09 04:45:39;;;;;;;18.65;10.88;;;6.50;78.10;;;;;;5036796;28;20064;-20
2021/12/09 04:48:07;;;;;;;15.80;10.00;;;6.50;78.00;;;;;;5036500;28;20412;-20
2021/12/09 04:50:35;;;;;;;9.45;5.75;;;6.50;78.20;;;;;;5035062;28;20037;-18
2021/12/09 04:53:01;;;;;;;11.77;6.68;;;6.50;78.20;;;;;;5036725;28;20469;-20
2021/12/09 04:55:28;;;;;;;21.20;12.38;;;6.50;78.30;;;;;;5036485;28;20052;-20
2021/12/09 04:57:54;;;;;;;24.00;14.27;;;6.40;78.60;;;;;;5036598;28;20049;-21
2021/12/09 05:00:22;;;;;;;13.80;8.35;;;6.40;78.50;;;;;;5035840;28;20033;-20
2021/12/09 05:03:07;;;;;;;22.88;12.55;;;6.40;78.80;;;;;;5036650;28;20082;-19
2021/12/09 05:05:41;;;;;;;17.58;10.73;;;6.40;79.30;;;;;;5036481;28;20033;-20
2021/12/09 05:08:11;;;;;;;19.23;11.07;;;6.40;79.10;;;;;;5036470;28;20110;-21
2021/12/09 05:13:25;;;;;;;22.92;13.55;;;6.30;79.10;;;;;;5036167;28;20052;-20
2021/12/09 05:15:52;;;;;;;19.85;12.02;;;6.30;79.10;;;;;;5036166;28;20072;-20
2021/12/09 05:18:19;;;;;;;18.38;10.45;;;6.20;79.30;;;;;;5036055;28;20048;-19
2021/12/09 05:20:46;;;;;;;17.98;10.18;;;6.20;79.30;;;;;;5035970;28;20026;-19
2021/12/09 05:23:13;;;;;;;19.38;11.15;;;6.30;79.40;;;;;;5036179;28;20029;-21
2021/12/09 05:25:40;;;;;;;16.75;10.45;;;6.20;79.40;;;;;;5034868;28;20496;-21
2021/12/09 05:28:08;;;;;;;20.83;12.57;;;6.20;79.10;;;;;;5036071;28;20052;-21
2021/12/09 05:32:07;;;;;;;14.13;7.20;;;6.30;79.10;;;;;;5035672;28;20469;-20
2021/12/09 05:33:30;;;;;;;18.38;11.18;;;6.30;78.90;;;;;;5035422;28;20041;-20
2021/12/09 05:35:56;;;;;;;17.92;10.80;;;6.20;79.00;;;;;;5035576;28;20382;-20
2021/12/09 05:38:23;;;;;;;14.05;7.85;;;6.30;79.00;;;;;;5035431;28;20033;-20
2021/12/09 05:40:49;;;;;;;9.60;5.30;;;6.20;79.00;;;;;;5035786;28;20436;-19
2021/12/09 05:43:16;;;;;;;13.95;8.77;;;6.20;79.00;;;;;;5036351;28;20045;-20
2021/12/09 05:45:43;;;;;;;15.50;8.68;;;6.30;78.90;;;;;;5035355;28;20409;-20
2021/12/09 05:48:10;;;;;;;12.18;6.85;;;6.30;78.90;;;;;;5035709;28;20059;-22
2021/12/09 05:50:38;;;;;;;10.40;5.70;;;6.30;78.90;;;;;;5035177;28;20038;-20
2021/12/09 05:53:05;;;;;;;14.38;8.63;;;6.30;78.90;;;;;;5035592;28;20025;-21
2021/12/09 05:55:32;;;;;;;19.27;11.98;;;6.30;78.80;;;;;;5035195;28;20033;-20
2021/12/09 05:57:58;;;;;;;21.80;11.65;;;6.30;78.80;;;;;;5035219;28;20068;-20
2021/12/09 06:00:24;;;;;;;14.93;8.57;;;6.40;79.30;;;;;;5033711;28;20033;-22
2021/12/09 06:02:50;;;;;;;14.27;7.65;;;6.40;78.70;;;;;;5035131;28;20029;-21
2021/12/09 06:05:18;;;;;;;9.63;5.20;;;6.40;78.70;;;;;;5035098;28;20087;-21
2021/12/09 06:07:45;;;;;;;9.07;5.43;;;6.40;78.50;;;;;;5035306;28;20029;-21
2021/12/09 06:10:12;;;;;;;11.82;7.15;;;6.40;78.40;;;;;;5035167;28;20022;-22
2021/12/09 06:12:38;;;;;;;9.68;5.43;;;6.40;78.50;;;;;;5035916;28;20105;-20
2021/12/09 06:15:05;;;;;;;16.92;10.88;;;6.40;78.70;;;;;;5035130;28;20497;-22
2021/12/09 06:17:31;;;;;;;14.85;9.52;;;6.40;78.70;;;;;;5035064;28;20385;-22
2021/12/09 06:19:57;;;;;;;13.40;8.60;;;6.40;78.70;;;;;;5034786;28;20030;-21
2021/12/09 06:22:23;;;;;;;19.70;12.10;;;6.40;78.90;;;;;;5033422;28;20025;-20
2021/12/09 06:24:49;;;;;;;20.75;12.02;;;6.40;78.70;;;;;;5035022;28;20033;-20
2021/12/09 06:27:16;;;;;;;10.75;6.22;;;6.40;78.90;;;;;;5034007;28;20358;-20
2021/12/09 06:29:42;;;;;;;14.60;8.85;;;6.40;78.60;;;;;;5034524;28;20054;-21
2021/12/09 06:32:09;;;;;;;13.45;7.85;;;6.40;78.60;;;;;;5034681;28;20022;-20
2021/12/09 06:34:35;;;;;;;21.77;14.18;;;6.40;78.70;;;;;;5034057;28;20468;-20
2021/12/09 06:37:01;;;;;;;22.27;13.60;;;6.40;78.50;;;;;;5033117;28;20017;-21
2021/12/09 06:39:27;;;;;;;15.52;9.30;;;6.40;78.50;;;;;;5034319;28;20045;-20
2021/12/09 06:41:53;;;;;;;13.75;8.55;;;6.50;78.60;;;;;;5034629;28;20034;-21
2021/12/09 06:44:19;;;;;;;11.00;6.72;;;6.50;78.50;;;;;;5034047;28;20029;-22
2021/12/09 06:46:45;;;;;;;9.05;5.13;;;6.50;78.60;;;;;;5033464;28;20048;-22
2021/12/09 06:49:11;;;;;;;14.93;9.40;;;6.40;78.30;;;;;;5034313;28;20664;-21
2021/12/09 06:51:37;;;;;;;14.88;9.07;;;6.50;78.60;;;;;;5034513;28;20089;-21
2021/12/09 06:54:04;;;;;;;17.08;11.43;;;6.50;78.60;;;;;;5034451;28;20032;-21
2021/12/09 06:56:32;;;;;;;12.45;6.70;;;6.50;78.50;;;;;;5033789;28;20030;-21
2021/12/09 06:59:00;;;;;;;10.32;5.75;;;6.40;78.40;;;;;;5034248;28;20037;-21
2021/12/09 07:01:26;;;;;;;10.02;5.72;;;6.50;78.50;;;;;;5034014;28;20600;-20
2021/12/09 07:03:53;;;;;;;10.82;6.05;;;6.50;78.50;;;;;;5034712;28;20029;-21
2021/12/09 07:06:20;;;;;;;10.68;6.43;;;6.50;78.50;;;;;;5033954;28;20045;-20
2021/12/09 07:08:48;;;;;;;10.20;5.95;;;6.50;78.50;;;;;;5034695;28;20407;-20
2021/12/09 07:11:18;;;;;;;7.15;4.57;;;6.50;78.40;;;;;;5033811;28;20025;-21
2021/12/09 07:13:46;;;;;;;13.43;8.48;;;6.50;78.30;;;;;;5033966;28;20064;-20
2021/12/09 07:16:14;;;;;;;9.13;5.15;;;6.60;78.20;;;;;;5033688;28;20032;-21
2021/12/09 07:18:40;;;;;;;12.07;7.75;;;6.60;78.20;;;;;;5032484;28;20041;-21
2021/12/09 07:21:07;;;;;;;12.73;8.13;;;6.60;78.10;;;;;;5034496;28;20087;-20
2021/12/09 07:23:34;;;;;;;16.92;9.80;;;6.60;78.10;;;;;;5033640;28;20116;-19
2021/12/09 07:26:01;;;;;;;12.60;8.02;;;6.60;78.00;;;;;;5033836;28;20040;-22
2021/12/09 07:28:27;;;;;;;17.90;10.98;;;6.60;77.90;;;;;;5033353;28;20030;-21
2021/12/09 07:30:53;;;;;;;13.30;7.50;;;6.70;78.10;;;;;;5032251;28;20041;-19
2021/12/09 07:33:19;;;;;;;9.48;5.28;;;6.70;78.00;;;;;;5033373;28;20030;-20
2021/12/09 07:35:45;;;;;;;15.55;8.82;;;6.70;77.80;;;;;;5033342;28;20033;-20
2021/12/09 07:38:11;;;;;;;24.42;14.82;;;6.70;77.70;;;;;;5033404;28;20062;-19
2021/12/09 07:40:38;;;;;;;18.00;11.25;;;6.80;77.80;;;;;;5033335;28;20034;-22
2021/12/09 07:43:05;;;;;;;12.88;7.88;;;6.80;77.80;;;;;;5033336;28;20081;-22
2021/12/09 07:45:31;;;;;;;12.93;7.72;;;6.80;77.80;;;;;;5033310;28;20029;-19
2021/12/09 07:47:59;;;;;;;12.57;7.53;;;6.80;77.70;;;;;;5033238;28;20075;-20
2021/12/09 07:50:28;;;;;;;12.98;8.40;;;6.70;77.70;;;;;;5032568;28;20037;-20
2021/12/09 07:52:56;;;;;;;17.88;10.68;;;6.70;77.70;;;;;;5033199;28;20033;-21
2021/12/09 07:55:23;;;;;;;16.48;10.30;;;6.80;77.80;;;;;;5033202;28;20028;-21
2021/12/09 07:57:51;;;;;;;14.20;9.27;;;6.80;77.90;;;;;;5033018;28;20495;-20
2021/12/09 08:00:21;;;;;;;13.23;7.38;;;6.80;77.80;;;;;;5032812;28;20044;-20
2021/12/09 08:02:49;;;;;;;15.27;9.38;;;6.90;77.90;;;;;;5033123;28;20029;-21
2021/12/09 08:05:17;;;;;;;15.60;10.25;;;6.80;77.90;;;;;;5033350;28;20026;-22
2021/12/09 08:07:43;;;;;;;15.27;9.85;;;6.90;77.70;;;;;;5033316;28;20028;-22
2021/12/09 08:10:13;;;;;;;16.58;9.45;;;6.90;77.90;;;;;;5033623;28;20021;-22
2021/12/09 08:12:40;;;;;;;13.57;8.60;;;6.90;77.70;;;;;;5033033;28;20545;-22
2021/12/09 08:15:09;;;;;;;17.50;10.45;;;6.90;77.60;;;;;;5033209;28;20021;-22
2021/12/09 08:20:16;;;;;;;16.52;11.45;;;6.90;77.70;;;;;;5033021;28;20044;-21
2021/12/09 08:22:44;;;;;;;16.40;10.15;;;6.80;77.70;;;;;;5031676;28;20061;-20
2021/12/09 08:25:13;;;;;;;16.60;10.30;;;6.80;77.80;;;;;;5033184;28;20105;-23
2021/12/09 08:27:45;;;;;;;14.75;9.13;;;6.80;77.70;;;;;;5032871;28;20021;-20
2021/12/09 08:30:14;;;;;;;14.63;8.40;;;6.80;77.70;;;;;;5033120;28;20071;-21
2021/12/09 08:32:40;;;;;;;13.82;8.23;;;6.80;77.70;;;;;;5032799;28;20033;-21
2021/12/09 08:35:07;;;;;;;24.30;13.93;;;6.70;77.70;;;;;;5032724;28;20046;-19
2021/12/09 08:37:33;;;;;;;17.30;11.15;;;6.70;77.70;;;;;;5031538;28;20103;-20
2021/12/09 08:39:59;;;;;;;20.20;11.73;;;6.60;77.80;;;;;;5032811;28;20509;-20
2021/12/09 08:42:25;;;;;;;17.85;10.95;;;6.60;77.80;;;;;;5032488;28;20041;-21
2021/12/09 08:44:52;;;;;;;17.98;10.35;;;6.60;77.80;;;;;;5032622;28;20030;-21
2021/12/09 08:47:18;;;;;;;14.40;8.35;;;6.60;77.80;;;;;;5032992;28;20025;-20
2021/12/09 08:49:45;;;;;;;12.98;7.18;;;6.60;77.90;;;;;;5031432;28;20030;-20
2021/12/09 08:52:13;;;;;;;13.52;7.57;;;6.50;77.90;;;;;;5032944;28;20030;-20
2021/12/09 08:54:39;;;;;;;14.07;7.93;;;6.60;77.80;;;;;;5032595;28;20036;-22
2021/12/09 08:57:05;;;;;;;14.27;8.00;;;6.50;77.80;;;;;;5032847;28;20042;-20
2021/12/09 08:59:32;;;;;;;15.50;8.70;;;6.60;77.80;;;;;;5032530;28;20057;-20
2021/12/09 09:01:58;;;;;;;17.77;10.55;;;6.50;77.80;;;;;;5034918;28;20031;-20
2021/12/09 09:04:24;;;;;;;17.92;10.65;;;6.40;78.00;;;;;;5034807;28;20424;-22
2021/12/09 09:06:53;;;;;;;19.42;11.63;;;6.40;78.20;;;;;;5036539;28;20523;-22
2021/12/09 09:09:19;;;;;;;26.38;13.77;;;6.40;78.20;;;;;;5036463;28;20033;-21
2021/12/09 09:11:45;;;;;;;14.32;8.07;;;6.40;78.40;;;;;;5036352;28;20482;-20
2021/12/09 09:14:11;;;;;;;17.48;10.43;;;6.40;78.30;;;;;;5036002;28;20033;-20
2021/12/09 09:16:38;;;;;;;18.42;10.50;;;6.40;78.50;;;;;;5035723;28;20481;-20
2021/12/09 09:19:05;;;;;;;21.52;13.18;;;6.40;78.60;;;;;;5036801;28;20087;-19
2021/12/09 09:21:34;;;;;;;19.27;11.38;;;6.40;78.60;;;;;;5034649;28;20511;-20
2021/12/09 09:24:01;;;;;;;16.08;9.80;;;6.40;78.70;;;;;;5036163;28;20051;-20
2021/12/09 09:26:29;;;;;;;18.70;11.25;;;6.40;78.50;;;;;;5035887;28;20481;-20
2021/12/09 09:28:55;;;;;;;22.02;12.82;;;6.40;78.40;;;;;;5034826;28;20167;-20
2021/12/09 09:31:24;;;;;;;12.60;7.50;;;6.40;78.50;;;;;;5036041;28;20037;-19
2021/12/09 09:33:50;;;;;;;12.68;7.47;;;6.40;78.30;;;;;;5035484;28;20461;-20
2021/12/09 09:36:16;;;;;;;21.38;12.55;;;6.50;78.10;;;;;;5035352;28;20065;-20
2021/12/09 09:38:42;;;;;;;19.10;10.88;;;6.50;78.20;;;;;;5035922;28;20070;-20
2021/12/09 09:41:14;;;;;;;13.95;8.10;;;6.50;78.10;;;;;;5035878;28;20029;-19
2021/12/09 09:43:54;;;;;;;13.48;7.88;;;6.50;78.00;;;;;;5036193;28;20040;-19
2021/12/09 09:46:31;;;;;;;13.07;7.32;;;6.60;78.00;;;;;;5035620;28;20033;-20
2021/12/09 09:49:01;;;;;;;15.75;10.45;;;6.60;77.90;;;;;;5035766;28;20033;-20
2021/12/09 09:51:29;;;;;;;15.45;10.13;;;6.70;77.90;;;;;;5035348;28;20092;-19
2021/12/09 09:53:56;;;;;;;12.38;7.90;;;6.70;77.90;;;;;;5035445;28;20024;-21
2021/12/09 09:56:24;;;;;;;16.08;10.45;;;6.80;77.80;;;;;;5035317;28;20041;-21
2021/12/09 09:58:55;;;;;;;16.05;10.07;;;6.80;77.70;;;;;;5035221;28;20540;-19
2021/12/09 10:01:22;;;;;;;12.30;7.97;;;6.80;77.70;;;;;;5035571;28;20029;-20
2021/12/09 10:03:57;;;;;;;13.55;8.00;;;6.90;77.80;;;;;;5035430;28;20063;-21
2021/12/09 10:06:23;;;;;;;19.55;12.15;;;6.90;77.70;;;;;;5035365;28;20124;-21
2021/12/09 10:08:49;;;;;;;11.48;6.75;;;6.90;78.40;;;;;;5034966;28;20029;-20
2021/12/09 10:11:16;;;;;;;13.70;7.95;;;7.00;77.90;;;;;;5035491;28;20036;-20
2021/12/09 10:13:44;;;;;;;14.77;9.10;;;7.00;78.00;;;;;;5034627;28;20029;-20
2021/12/09 10:16:27;;;;;;;10.75;6.20;;;7.10;78.10;;;;;;5034804;28;20030;-20
2021/12/09 10:18:56;;;;;;;15.32;8.48;;;7.10;78.00;;;;;;5035547;28;20026;-20
2021/12/09 10:21:24;;;;;;;11.48;6.72;;;7.20;78.20;;;;;;5035141;28;20084;-20
2021/12/09 10:23:59;;;;;;;9.88;5.55;;;7.30;78.10;;;;;;5033481;28;20116;-20
2021/12/09 10:26:34;;;;;;;8.65;5.47;;;7.30;77.80;;;;;;5034864;28;20108;-20
2021/12/09 10:29:24;;;;;;;15.38;9.18;;;7.40;77.90;;;;;;5034945;28;20025;-21
2021/12/09 10:31:59;;;;;;;8.35;5.07;;;7.50;77.80;;;;;;5034646;28;20463;-19
2021/12/09 10:37:21;;;;;;;9.77;5.95;;;7.60;78.00;;;;;;5034542;28;20112;-21
2021/12/09 10:40:01;;;;;;;12.82;7.70;;;7.60;77.70;;;;;;5034692;28;20512;-22
2021/12/09 10:42:29;;;;;;;8.55;4.60;;;7.70;77.80;;;;;;5034140;28;20025;-21
2021/12/09 10:45:28;;;;;;;8.55;4.68;;;7.70;77.50;;;;;;5034570;28;20021;-20
2021/12/09 10:48:26;;;;;;;10.73;6.70;;;7.80;77.50;;;;;;5034134;28;20042;-20
2021/12/09 10:53:46;;;;;;;10.32;6.03;;;7.90;77.30;;;;;;5034317;28;20051;-21
2021/12/09 10:56:25;;;;;;;7.85;4.40;;;7.90;77.20;;;;;;5033942;28;20033;-25
2021/12/09 10:58:51;;;;;;;8.40;5.68;;;7.90;77.10;;;;;;5034144;28;20485;-21
2021/12/09 11:01:20;;;;;;;11.48;7.55;;;7.90;77.10;;;;;;5033075;28;20033;-21
2021/12/09 11:03:55;;;;;;;8.10;5.07;;;8.00;77.00;;;;;;5032809;28;20064;-20
2021/12/09 11:06:37;;;;;;;9.57;5.43;;;8.00;76.90;;;;;;5033817;28;20024;-20
2021/12/09 11:09:06;;;;;;;7.85;5.30;;;8.00;76.90;;;;;;5033940;28;20461;-20
2021/12/09 11:11:34;;;;;;;4.25;2.88;;;8.10;77.00;;;;;;5034170;28;20025;-20
2021/12/09 11:14:03;;;;;;;8.10;4.97;;;8.10;76.80;;;;;;5033772;28;20425;-22
2021/12/09 11:16:34;;;;;;;4.15;2.90;;;8.20;76.80;;;;;;5033516;28;20504;-20
2021/12/09 11:19:07;;;;;;;8.02;4.82;;;8.20;76.70;;;;;;5034003;28;20124;-20
2021/12/09 11:21:39;;;;;;;10.57;6.85;;;8.20;76.60;;;;;;5034034;28;20131;-21
2021/12/09 11:24:12;;;;;;;10.73;6.93;;;8.20;76.70;;;;;;5033292;28;20018;-19
2021/12/09 11:29:24;;;;;;;7.40;4.40;;;8.30;76.50;;;;;;5034126;28;20489;-20
2021/12/09 11:32:09;;;;;;;13.82;8.55;;;8.30;76.50;;;;;;5033604;28;20029;-20
2021/12/09 11:34:50;;;;;;;11.65;7.03;;;8.30;76.60;;;;;;5033145;28;20049;-21
2021/12/09 11:37:37;;;;;;;13.82;8.75;;;8.30;76.40;;;;;;5033429;28;20040;-20
2021/12/09 11:40:31;;;;;;;13.77;9.07;;;8.30;76.40;;;;;;5033468;28;20036;-21
2021/12/09 11:43:00;;;;;;;8.13;5.30;;;8.30;76.30;;;;;;5033718;28;20025;-20
2021/12/09 11:45:33;;;;;;;8.52;5.20;;;8.40;76.30;;;;;;5033181;28;20025;-20
2021/12/09 11:48:01;;;;;;;9.63;5.88;;;8.30;76.30;;;;;;5033333;28;20033;-20
2021/12/09 11:50:30;;;;;;;10.98;7.47;;;8.30;76.20;;;;;;5033371;28;20117;-20
2021/12/09 11:52:58;;;;;;;7.78;4.20;;;8.30;76.30;;;;;;5033510;28;20029;-20
2021/12/09 11:55:33;;;;;;;5.65;3.67;;;8.30;76.30;;;;;;5033161;28;20032;-19
2021/12/09 11:58:05;;;;;;;6.38;3.75;;;8.30;76.20;;;;;;5033160;28;20370;-21
2021/12/09 12:07:09;;;;;;;8.15;4.50;;;8.30;76.30;;;;;;5032987;28;20045;-22
2021/12/09 12:21:14;;;;;;;6.65;3.88;;;8.40;76.10;;;;;;5032898;28;20101;-21
2021/12/09 12:23:55;;;;;;;6.20;3.50;;;8.30;76.10;;;;;;5032929;28;20496;-21
2021/12/09 12:32:47;;;;;;;10.25;6.25;;;8.40;76.20;;;;;;5033238;28;20106;-21
2021/12/09 12:41:00;;;;;;;13.27;7.95;;;8.40;76.10;;;;;;5036818;28;20108;-20
2021/12/09 12:43:30;;;;;;;9.07;5.32;;;8.40;76.00;;;;;;5037548;28;20044;-20
2021/12/09 12:46:08;;;;;;;9.35;5.70;;;8.50;76.00;;;;;;5036570;28;20473;-20
2021/12/09 12:53:49;;;;;;;5.22;2.92;;;8.40;76.20;;;;;;5036425;28;19912;-20
2021/12/09 12:56:24;;;;;;;7.30;4.53;;;8.50;76.10;;;;;;5036157;28;20044;-20
2021/12/09 12:59:16;;;;;;;8.18;4.90;;;8.50;76.10;;;;;;5036738;28;20029;-20
2021/12/09 13:01:49;;;;;;;5.07;3.03;;;8.50;76.00;;;;;;5026970;28;20041;-20
2021/12/09 13:07:19;;;;;;;8.07;5.18;;;8.60;76.00;;;;;;5037066;28;20068;-20
2021/12/09 13:09:54;;;;;;;7.78;5.35;;;8.60;76.00;;;;;;5036210;28;20040;-20
2021/12/09 13:12:42;;;;;;;7.55;4.10;;;8.60;76.00;;;;;;5036259;28;20033;-20
2021/12/09 13:15:29;;;;;;;7.80;4.60;;;8.60;75.90;;;;;;5036355;28;20045;-22
2021/12/09 13:18:03;;;;;;;9.55;6.10;;;8.60;75.90;;;;;;5035993;28;20112;-22
2021/12/09 13:20:36;;;;;;;11.18;6.95;;;8.70;75.90;;;;;;5035828;28;20033;-21
2021/12/09 13:23:31;;;;;;;9.50;6.03;;;8.60;75.90;;;;;;5036005;28;20389;-21
2021/12/09 13:26:22;;;;;;;10.02;5.75;;;8.60;76.00;;;;;;5013955;28;20273;-21
2021/12/09 13:28:56;;;;;;;9.13;5.78;;;8.70;76.00;;;;;;5014024;28;20050;-20
2021/12/09 13:32:02;;;;;;;8.55;5.15;;;8.70;75.90;;;;;;5013888;28;20041;-22
2021/12/09 13:34:40;;;;;;;6.43;3.88;;;8.70;76.00;;;;;;5013466;28;20045;-20
2021/12/09 13:37:37;;;;;;;9.55;5.43;;;8.70;75.90;;;;;;5013977;28;20084;-20
2021/12/09 13:40:24;;;;;;;12.48;7.90;;;8.70;75.90;;;;;;5013763;28;20494;-20
2021/12/09 13:46:07;;;;;;;10.77;6.80;;;8.70;75.90;;;;;;5013941;28;20024;-19
2021/12/09 13:48:44;;;;;;;6.63;3.78;;;8.60;76.00;;;;;;5012899;28;20038;-22
2021/12/09 13:57:06;;;;;;;9.25;5.70;;;8.60;76.00;;;;;;5013726;28;20038;-21
2021/12/09 13:59:36;;;;;;;10.30;4.97;;;8.60;76.20;;;;;;5013439;28;20064;-21
2021/12/09 14:02:13;;;;;;;8.07;4.82;;;8.70;76.20;;;;;;5021252;28;20040;-21
2021/12/09 14:04:39;;;;;;;9.60;6.10;;;8.70;76.10;;;;;;5035722;28;20108;-19